createdAt,value
2017-01-06T00:00:16.178Z,0
2017-01-06T00:01:17.029Z,0
2017-01-06T00:02:16.586Z,0
2017-01-06T00:03:15.806Z,0
2017-01-06T00:04:16.263Z,0
2017-01-06T00:05:16.269Z,0
2017-01-06T00:06:16.590Z,0
2017-01-06T00:07:16.230Z,0
2017-01-06T00:08:17.038Z,0
2017-01-06T00:09:16.303Z,0
2017-01-06T00:10:16.699Z,0
2017-01-06T00:11:15.872Z,0
2017-01-06T00:12:16.274Z,0
2017-01-06T00:13:15.933Z,0
2017-01-06T00:14:16.346Z,0
2017-01-06T00:15:16.744Z,0
2017-01-06T00:16:16.600Z,0
2017-01-06T00:17:16.704Z,0
2017-01-06T00:18:16.021Z,0
2017-01-06T00:19:16.325Z,0
2017-01-06T00:20:16.286Z,0
2017-01-06T00:21:16.296Z,0
2017-01-06T00:22:16.644Z,0
2017-01-06T00:23:16.006Z,0
2017-01-06T00:24:16.712Z,0
2017-01-06T00:25:16.911Z,0
2017-01-06T00:26:16.309Z,0
2017-01-06T00:27:16.985Z,0
2017-01-06T00:28:16.349Z,0
2017-01-06T00:29:17.310Z,0
2017-01-06T00:30:15.964Z,0
2017-01-06T00:31:16.050Z,0
2017-01-06T00:32:16.331Z,0
2017-01-06T00:33:16.834Z,0
2017-01-06T00:34:16.393Z,0
2017-01-06T00:35:15.559Z,0
2017-01-06T00:36:16.518Z,0
2017-01-06T00:37:16.421Z,0
2017-01-06T00:38:16.378Z,0
2017-01-06T00:39:16.541Z,0
2017-01-06T00:40:16.394Z,0
2017-01-06T00:41:16.158Z,0
2017-01-06T00:42:16.059Z,0
2017-01-06T00:43:16.912Z,0
2017-01-06T00:44:16.477Z,0
2017-01-06T00:45:16.578Z,0
2017-01-06T00:46:16.830Z,0
2017-01-06T00:47:16.993Z,0
2017-01-06T00:48:16.451Z,0
2017-01-06T00:49:16.563Z,0
2017-01-06T00:50:16.122Z,0
2017-01-06T00:51:16.918Z,0
2017-01-06T00:52:16.684Z,0
2017-01-06T00:53:16.937Z,0
2017-01-06T00:54:16.903Z,0
2017-01-06T00:55:16.555Z,0
2017-01-06T00:56:16.615Z,0
2017-01-06T00:57:16.970Z,0
2017-01-06T00:58:18.131Z,0
2017-01-06T00:59:16.647Z,0
2017-01-06T01:00:17.089Z,0
2017-01-06T01:01:16.604Z,0
2017-01-06T01:02:17.108Z,0
2017-01-06T01:03:17.012Z,0
2017-01-06T01:04:16.183Z,0
2017-01-06T01:05:16.336Z,0
2017-01-06T01:06:17.537Z,0
2017-01-06T01:07:16.363Z,0
2017-01-06T01:08:16.760Z,0
2017-01-06T01:09:16.276Z,0
2017-01-06T01:10:17.052Z,0
2017-01-06T01:11:16.389Z,0
2017-01-06T01:12:16.344Z,0
2017-01-06T01:13:16.823Z,0
2017-01-06T01:14:17.170Z,0
2017-01-06T01:15:16.766Z,0
2017-01-06T01:16:17.074Z,0
2017-01-06T01:17:16.778Z,0
2017-01-06T01:18:16.840Z,0
2017-01-06T01:19:16.347Z,0
2017-01-06T01:20:16.017Z,0
2017-01-06T01:21:16.780Z,0
2017-01-06T01:22:16.824Z,0
2017-01-06T01:23:17.174Z,0
2017-01-06T01:24:17.232Z,0
2017-01-06T01:25:16.645Z,0
2017-01-06T01:26:17.594Z,0
2017-01-06T01:27:16.569Z,0
2017-01-06T01:28:31.694Z,0
2017-01-06T01:29:17.172Z,0
2017-01-06T01:30:16.826Z,0
2017-01-06T01:31:17.232Z,0
2017-01-06T01:32:17.243Z,0
2017-01-06T01:33:16.064Z,0
2017-01-06T01:34:16.646Z,0
2017-01-06T01:35:17.213Z,0
2017-01-06T01:36:16.935Z,0
2017-01-06T01:37:17.329Z,0
2017-01-06T01:38:16.940Z,0
2017-01-06T01:39:16.953Z,0
2017-01-06T01:40:17.308Z,0
2017-01-06T01:41:17.266Z,0
2017-01-06T01:42:17.323Z,0
2017-01-06T01:43:16.712Z,0
2017-01-06T01:44:17.092Z,0
2017-01-06T01:45:17.346Z,0
2017-01-06T01:46:17.211Z,0
2017-01-06T01:47:16.968Z,0
2017-01-06T01:48:17.419Z,0
2017-01-06T01:49:17.376Z,0
2017-01-06T01:50:16.993Z,0
2017-01-06T01:51:17.396Z,0
2017-01-06T01:52:17.005Z,0
2017-01-06T01:53:17.463Z,0
2017-01-06T01:54:17.861Z,0
2017-01-06T01:55:17.472Z,0
2017-01-06T01:56:17.483Z,0
2017-01-06T01:57:16.646Z,0
2017-01-06T01:58:18.044Z,0
2017-01-06T01:59:17.059Z,0
2017-01-06T02:00:17.122Z,0
2017-01-06T02:01:49.596Z,0
2017-01-06T02:02:17.081Z,0
2017-01-06T02:03:18.442Z,0
2017-01-06T02:04:43.195Z,0
2017-01-06T02:05:17.597Z,0
2017-01-06T02:06:17.070Z,0
2017-01-06T02:07:17.124Z,0
2017-01-06T02:08:17.131Z,0
2017-01-06T02:09:17.269Z,0
2017-01-06T02:10:17.635Z,0
2017-01-06T02:11:16.706Z,0
2017-01-06T02:12:18.060Z,0
2017-01-06T02:13:17.616Z,0
2017-01-06T02:14:17.670Z,0
2017-01-06T02:15:16.444Z,0
2017-01-06T02:16:17.987Z,0
2017-01-06T02:17:16.405Z,0
2017-01-06T02:18:17.653Z,0
2017-01-06T02:19:17.319Z,0
2017-01-06T02:20:17.616Z,0
2017-01-06T02:21:17.232Z,0
2017-01-06T02:22:18.139Z,0
2017-01-06T02:23:17.796Z,0
2017-01-06T02:24:16.856Z,0
2017-01-06T02:25:17.171Z,0
2017-01-06T02:26:17.665Z,0
2017-01-06T02:27:17.722Z,0
2017-01-06T02:28:17.434Z,0
2017-01-06T02:29:16.851Z,0
2017-01-06T02:30:17.651Z,0
2017-01-06T02:31:17.704Z,0
2017-01-06T02:32:17.364Z,0
2017-01-06T02:33:17.423Z,0
2017-01-06T02:34:16.933Z,0
2017-01-06T02:35:17.391Z,0
2017-01-06T02:36:16.949Z,0
2017-01-06T02:37:17.353Z,0
2017-01-06T02:38:17.370Z,0
2017-01-06T02:39:17.376Z,0
2017-01-06T02:40:17.528Z,0
2017-01-06T02:41:17.337Z,0
2017-01-06T02:42:17.842Z,0
2017-01-06T02:43:17.058Z,0
2017-01-06T02:44:17.353Z,0
2017-01-06T02:45:16.672Z,0
2017-01-06T02:46:17.823Z,0
2017-01-06T02:47:17.441Z,0
2017-01-06T02:48:17.444Z,0
2017-01-06T02:49:17.551Z,0
2017-01-06T02:50:17.505Z,0
2017-01-06T02:51:17.968Z,0
2017-01-06T02:52:17.426Z,0
2017-01-06T02:53:17.630Z,0
2017-01-06T02:54:17.436Z,0
2017-01-06T02:55:17.850Z,0
2017-01-06T02:56:17.950Z,0
2017-01-06T02:57:17.957Z,0
2017-01-06T02:58:17.518Z,0
2017-01-06T02:59:17.576Z,0
2017-01-06T03:00:17.488Z,0
2017-01-06T03:01:17.541Z,0
2017-01-06T03:02:17.952Z,0
2017-01-06T03:03:18.000Z,0
2017-01-06T03:04:17.614Z,0
2017-01-06T03:05:17.670Z,0
2017-01-06T03:06:18.030Z,0
2017-01-06T03:07:18.033Z,0
2017-01-06T03:08:17.545Z,0
2017-01-06T03:09:18.048Z,0
2017-01-06T03:10:17.323Z,0
2017-01-06T03:11:17.349Z,0
2017-01-06T03:12:17.677Z,0
2017-01-06T03:13:18.031Z,0
2017-01-06T03:14:17.251Z,0
2017-01-06T03:15:17.604Z,0
2017-01-06T03:16:17.762Z,0
2017-01-06T03:17:17.668Z,0
2017-01-06T03:18:17.675Z,0
2017-01-06T03:19:18.177Z,0
2017-01-06T03:20:17.689Z,0
2017-01-06T03:21:17.796Z,0
2017-01-06T03:22:18.108Z,0
2017-01-06T03:23:18.063Z,0
2017-01-06T03:24:17.382Z,0
2017-01-06T03:25:16.992Z,0
2017-01-06T03:26:18.248Z,0
2017-01-06T03:27:17.899Z,0
2017-01-06T03:28:18.103Z,0
2017-01-06T03:29:17.664Z,0
2017-01-06T03:30:18.216Z,0
2017-01-06T03:31:18.173Z,0
2017-01-06T03:32:18.578Z,0
2017-01-06T03:33:18.714Z,0
2017-01-06T03:34:17.754Z,0
2017-01-06T03:35:17.468Z,0
2017-01-06T03:36:17.718Z,0
2017-01-06T03:37:17.434Z,0
2017-01-06T03:38:18.279Z,0
2017-01-06T03:39:18.090Z,0
2017-01-06T03:40:17.847Z,0
2017-01-06T03:41:17.409Z,0
2017-01-06T03:42:17.523Z,0
2017-01-06T03:43:17.919Z,0
2017-01-06T03:44:18.293Z,0
2017-01-06T03:45:17.542Z,0
2017-01-06T03:46:18.293Z,0
2017-01-06T03:47:17.558Z,0
2017-01-06T03:48:18.311Z,0
2017-01-06T03:49:18.366Z,0
2017-01-06T03:50:18.374Z,0
2017-01-06T03:51:17.539Z,0
2017-01-06T03:52:18.290Z,0
2017-01-06T03:53:18.003Z,0
2017-01-06T03:54:17.991Z,0
2017-01-06T03:55:17.970Z,0
2017-01-06T03:56:18.024Z,0
2017-01-06T03:57:18.466Z,0
2017-01-06T03:58:18.437Z,0
2017-01-06T03:59:18.395Z,0
2017-01-06T04:00:17.562Z,0
2017-01-06T04:01:17.675Z,0
2017-01-06T04:02:17.680Z,0
2017-01-06T04:03:19.025Z,0
2017-01-06T04:04:18.034Z,0
2017-01-06T04:05:18.798Z,0
2017-01-06T04:06:17.605Z,0
2017-01-06T04:07:18.058Z,0
2017-01-06T04:08:18.120Z,0
2017-01-06T04:09:18.582Z,0
2017-01-06T04:10:18.194Z,0
2017-01-06T04:11:18.193Z,0
2017-01-06T04:12:18.504Z,0
2017-01-06T04:13:18.506Z,0
2017-01-06T04:14:18.115Z,0
2017-01-06T04:15:18.126Z,0
2017-01-06T04:16:17.339Z,0
2017-01-06T04:17:17.399Z,0
2017-01-06T04:18:18.545Z,0
2017-01-06T04:19:18.554Z,0
2017-01-06T04:20:18.622Z,0
2017-01-06T04:21:17.830Z,0
2017-01-06T04:22:18.523Z,0
2017-01-06T04:23:17.793Z,0
2017-01-06T04:24:18.350Z,0
2017-01-06T04:25:18.158Z,0
2017-01-06T04:26:18.578Z,0
2017-01-06T04:27:18.641Z,0
2017-01-06T04:28:18.328Z,0
2017-01-06T04:29:17.886Z,0
2017-01-06T04:30:17.897Z,0
2017-01-06T04:31:17.802Z,0
2017-01-06T04:32:17.467Z,0
2017-01-06T04:33:18.740Z,0
2017-01-06T04:34:18.324Z,0
2017-01-06T04:35:18.337Z,0
2017-01-06T04:36:18.688Z,0
2017-01-06T04:37:19.104Z,0
2017-01-06T04:38:18.261Z,0
2017-01-06T04:39:18.811Z,0
2017-01-06T04:40:17.981Z,0
2017-01-06T04:41:17.903Z,0
2017-01-06T04:42:18.441Z,0
2017-01-06T04:43:17.552Z,0
2017-01-06T04:44:18.751Z,0
2017-01-06T04:45:18.464Z,0
2017-01-06T04:46:18.713Z,0
2017-01-06T04:47:18.875Z,0
2017-01-06T04:48:18.908Z,0
2017-01-06T04:49:19.236Z,0
2017-01-06T04:50:18.497Z,0
2017-01-06T04:51:18.870Z,0
2017-01-06T04:52:18.862Z,0
2017-01-06T04:53:18.775Z,0
2017-01-06T04:54:18.483Z,0
2017-01-06T04:55:18.439Z,0
2017-01-06T04:56:18.846Z,0
2017-01-06T04:57:18.967Z,0
2017-01-06T04:58:19.205Z,0
2017-01-06T04:59:18.073Z,0
2017-01-06T05:00:17.749Z,0
2017-01-06T05:01:18.486Z,0
2017-01-06T05:02:19.040Z,0
2017-01-06T05:03:18.623Z,0
2017-01-06T05:04:18.512Z,0
2017-01-06T05:05:19.313Z,0
2017-01-06T05:06:19.473Z,0
2017-01-06T05:07:19.327Z,0
2017-01-06T05:08:19.686Z,0
2017-01-06T05:09:18.205Z,0
2017-01-06T05:10:18.566Z,0
2017-01-06T05:11:19.011Z,0
2017-01-06T05:12:18.234Z,0
2017-01-06T05:13:18.578Z,0
2017-01-06T05:14:19.034Z,0
2017-01-06T05:15:18.201Z,0
2017-01-06T05:16:18.995Z,0
2017-01-06T05:17:19.160Z,0
2017-01-06T05:18:18.727Z,0
2017-01-06T05:19:18.240Z,0
2017-01-06T05:20:18.186Z,0
2017-01-06T05:21:18.350Z,0
2017-01-06T05:22:19.147Z,0
2017-01-06T05:23:18.611Z,0
2017-01-06T05:24:18.720Z,0
2017-01-06T05:25:18.276Z,0
2017-01-06T05:26:18.643Z,0
2017-01-06T05:27:19.084Z,0
2017-01-06T05:28:19.144Z,0
2017-01-06T05:29:19.155Z,0
2017-01-06T05:30:19.212Z,0
2017-01-06T05:31:19.213Z,0
2017-01-06T05:32:18.739Z,0
2017-01-06T05:33:18.445Z,0
2017-01-06T05:34:19.148Z,0
2017-01-06T05:35:19.200Z,0
2017-01-06T05:36:18.711Z,0
2017-01-06T05:37:18.873Z,0
2017-01-06T05:38:18.825Z,0
2017-01-06T05:39:18.743Z,0
2017-01-06T05:40:18.055Z,0
2017-01-06T05:41:19.197Z,0
2017-01-06T05:42:19.159Z,0
2017-01-06T05:43:18.818Z,0
2017-01-06T05:44:19.771Z,0
2017-01-06T05:45:19.330Z,0
2017-01-06T05:46:19.010Z,0
2017-01-06T05:47:19.645Z,0
2017-01-06T05:48:18.857Z,0
2017-01-06T05:49:19.703Z,0
2017-01-06T05:50:19.317Z,0
2017-01-06T05:52:18.596Z,0
2017-01-06T05:53:18.948Z,0
2017-01-06T05:54:18.882Z,0
2017-01-06T05:55:18.617Z,0
2017-01-06T05:56:19.816Z,0
2017-01-06T05:57:19.277Z,0
2017-01-06T05:58:19.354Z,0
2017-01-06T05:59:19.344Z,0
2017-01-06T06:00:19.348Z,0
2017-01-06T06:01:19.506Z,0
2017-01-06T06:02:19.016Z,0
2017-01-06T06:03:19.372Z,0
2017-01-06T06:04:19.034Z,0
2017-01-06T06:05:19.834Z,0
2017-01-06T06:06:18.656Z,0
2017-01-06T06:07:19.351Z,0
2017-01-06T06:08:18.726Z,0
2017-01-06T06:09:18.973Z,0
2017-01-06T06:10:19.529Z,0
2017-01-06T06:11:19.442Z,0
2017-01-06T06:12:18.760Z,0
2017-01-06T06:13:19.507Z,0
2017-01-06T06:14:19.129Z,0
2017-01-06T06:15:19.078Z,0
2017-01-06T06:16:18.691Z,0
2017-01-06T06:17:18.701Z,0
2017-01-06T06:18:18.703Z,0
2017-01-06T06:19:19.058Z,0
2017-01-06T06:20:18.770Z,0
2017-01-06T06:21:18.691Z,0
2017-01-06T06:22:19.130Z,0
2017-01-06T06:23:19.159Z,0
2017-01-06T06:24:19.202Z,0
2017-01-06T06:25:19.613Z,0
2017-01-06T06:26:19.262Z,0
2017-01-06T06:27:19.722Z,0
2017-01-06T06:28:18.786Z,0
2017-01-06T06:29:19.144Z,0
2017-01-06T06:30:19.193Z,0
2017-01-06T06:31:19.949Z,0
2017-01-06T06:32:19.159Z,0
2017-01-06T06:33:19.322Z,0
2017-01-06T06:34:19.228Z,0
2017-01-06T06:35:20.279Z,0
2017-01-06T06:36:19.243Z,0
2017-01-06T06:37:19.644Z,0
2017-01-06T06:38:19.206Z,0
2017-01-06T06:39:19.315Z,0
2017-01-06T06:40:19.669Z,0
2017-01-06T06:41:19.235Z,0
2017-01-06T06:42:19.737Z,0
2017-01-06T06:43:19.697Z,0
2017-01-06T06:44:18.962Z,0
2017-01-06T06:45:18.975Z,0
2017-01-06T06:46:19.354Z,0
2017-01-06T06:47:18.987Z,0
2017-01-06T06:48:19.736Z,0
2017-01-06T06:49:19.796Z,0
2017-01-06T06:50:20.144Z,0
2017-01-06T06:51:19.756Z,0
2017-01-06T06:52:19.817Z,0
2017-01-06T06:53:19.374Z,0
2017-01-06T06:54:20.173Z,0
2017-01-06T06:55:19.393Z,0
2017-01-06T06:56:19.899Z,0
2017-01-06T06:57:19.903Z,0
2017-01-06T06:58:19.860Z,0
2017-01-06T06:59:19.971Z,0
2017-01-06T07:00:19.433Z,0
2017-01-06T07:01:19.443Z,0
2017-01-06T07:02:19.498Z,0
2017-01-06T07:03:19.852Z,0
2017-01-06T07:04:19.558Z,0
2017-01-06T07:05:19.569Z,0
2017-01-06T07:06:19.093Z,0
2017-01-06T07:07:19.886Z,0
2017-01-06T07:08:19.892Z,0
2017-01-06T07:09:19.852Z,0
2017-01-06T07:10:19.517Z,0
2017-01-06T07:11:19.173Z,0
2017-01-06T07:12:19.523Z,0
2017-01-06T07:13:19.481Z,0
2017-01-06T07:14:19.197Z,0
2017-01-06T07:15:19.107Z,0
2017-01-06T07:16:19.562Z,0
2017-01-06T07:17:19.613Z,0
2017-01-06T07:18:20.464Z,0
2017-01-06T07:19:19.182Z,0
2017-01-06T07:20:20.035Z,0
2017-01-06T07:21:19.990Z,0
2017-01-06T07:22:19.659Z,0
2017-01-06T07:23:19.215Z,0
2017-01-06T07:24:20.508Z,0
2017-01-06T07:25:19.593Z,0
2017-01-06T07:26:19.630Z,0
2017-01-06T07:27:19.689Z,0
2017-01-06T07:28:20.095Z,0
2017-01-06T07:29:19.311Z,0
2017-01-06T07:30:19.294Z,0
2017-01-06T07:31:19.622Z,0
2017-01-06T07:32:19.330Z,0
2017-01-06T07:33:19.685Z,0
2017-01-06T07:34:20.584Z,0
2017-01-06T07:35:20.208Z,0
2017-01-06T07:36:19.763Z,0
2017-01-06T07:37:19.725Z,0
2017-01-06T07:38:19.277Z,5
2017-01-06T07:39:20.187Z,5
2017-01-06T07:40:19.791Z,5
2017-01-06T07:41:19.792Z,5
2017-01-06T07:42:19.414Z,5
2017-01-06T07:43:19.371Z,5
2017-01-06T07:44:20.570Z,5
2017-01-06T07:45:20.279Z,5
2017-01-06T07:46:20.139Z,5
2017-01-06T07:47:20.293Z,5
2017-01-06T07:48:19.827Z,5
2017-01-06T07:49:19.812Z,5
2017-01-06T07:50:20.567Z,5
2017-01-06T07:51:20.333Z,10
2017-01-06T07:52:20.335Z,10
2017-01-06T07:53:20.242Z,10
2017-01-06T07:54:20.600Z,10
2017-01-06T07:55:19.885Z,10
2017-01-06T07:56:19.920Z,10
2017-01-06T07:57:19.929Z,10
2017-01-06T07:58:19.495Z,10
2017-01-06T07:59:20.292Z,10
2017-01-06T08:00:20.730Z,15
2017-01-06T08:01:19.911Z,15
2017-01-06T08:02:19.586Z,15
2017-01-06T08:03:20.372Z,15
2017-01-06T08:04:19.648Z,15
2017-01-06T08:05:19.553Z,15
2017-01-06T08:06:19.743Z,15
2017-01-06T08:07:20.065Z,15
2017-01-06T08:08:20.022Z,15
2017-01-06T08:09:19.981Z,15
2017-01-06T08:10:20.781Z,20
2017-01-06T08:11:19.998Z,20
2017-01-06T08:12:20.060Z,20
2017-01-06T08:13:19.968Z,20
2017-01-06T08:14:20.029Z,20
2017-01-06T08:15:20.044Z,20
2017-01-06T08:16:20.443Z,20
2017-01-06T08:17:20.549Z,20
2017-01-06T08:18:20.904Z,20
2017-01-06T08:19:19.828Z,20
2017-01-06T08:20:20.575Z,20
2017-01-06T08:21:20.830Z,20
2017-01-06T08:22:19.410Z,20
2017-01-06T08:23:20.105Z,20
2017-01-06T08:24:19.668Z,20
2017-01-06T08:25:20.223Z,20
2017-01-06T08:26:20.240Z,25
2017-01-06T08:27:20.142Z,25
2017-01-06T08:28:20.125Z,25
2017-01-06T08:29:19.371Z,25
2017-01-06T08:30:20.963Z,25
2017-01-06T08:31:19.835Z,25
2017-01-06T08:32:21.076Z,25
2017-01-06T08:33:20.699Z,25
2017-01-06T08:34:20.216Z,25
2017-01-06T08:35:20.612Z,25
2017-01-06T08:36:20.227Z,25
2017-01-06T08:37:20.632Z,25
2017-01-06T08:38:20.191Z,25
2017-01-06T08:39:21.200Z,25
2017-01-06T08:40:19.961Z,25
2017-01-06T08:41:20.374Z,30
2017-01-06T08:42:20.630Z,30
2017-01-06T08:43:19.447Z,35
2017-01-06T08:44:20.694Z,40
2017-01-06T08:45:20.805Z,45
2017-01-06T08:46:20.717Z,45
2017-01-06T08:47:19.933Z,45
2017-01-06T08:48:20.300Z,45
2017-01-06T08:49:20.346Z,35
2017-01-06T08:50:20.351Z,40
2017-01-06T08:51:20.407Z,40
2017-01-06T08:52:20.521Z,40
2017-01-06T08:53:20.773Z,40
2017-01-06T08:54:20.738Z,40
2017-01-06T08:55:20.817Z,40
2017-01-06T08:56:20.324Z,45
2017-01-06T08:57:20.812Z,45
2017-01-06T08:58:20.878Z,45
2017-01-06T08:59:20.884Z,40
2017-01-06T09:00:20.841Z,40
2017-01-06T09:01:20.848Z,40
2017-01-06T09:02:20.064Z,50
2017-01-06T09:03:20.132Z,55
2017-01-06T09:04:20.932Z,60
2017-01-06T09:05:21.286Z,70
2017-01-06T09:06:20.948Z,70
2017-01-06T09:07:20.904Z,70
2017-01-06T09:08:20.076Z,65
2017-01-06T09:09:19.792Z,60
2017-01-06T09:10:20.544Z,65
2017-01-06T09:11:20.158Z,70
2017-01-06T09:12:21.090Z,45
2017-01-06T09:13:20.528Z,45
2017-01-06T09:14:21.078Z,45
2017-01-06T09:15:21.041Z,45
2017-01-06T09:16:20.211Z,60
2017-01-06T09:17:20.613Z,75
2017-01-06T09:18:21.465Z,75
2017-01-06T09:19:20.297Z,80
2017-01-06T09:20:20.555Z,85
2017-01-06T09:21:21.168Z,85
2017-01-06T09:22:20.270Z,60
2017-01-06T09:23:21.070Z,50
2017-01-06T09:24:21.141Z,65
2017-01-06T09:25:21.100Z,75
2017-01-06T09:26:21.510Z,85
2017-01-06T09:27:21.171Z,75
2017-01-06T09:28:20.686Z,75
2017-01-06T09:29:20.807Z,65
2017-01-06T09:30:20.766Z,75
2017-01-06T09:31:20.979Z,85
2017-01-06T09:32:21.229Z,80
2017-01-06T09:33:20.794Z,85
2017-01-06T09:34:21.251Z,65
2017-01-06T09:35:20.023Z,70
2017-01-06T09:36:20.822Z,90
2017-01-06T09:37:20.834Z,90
2017-01-06T09:38:21.239Z,95
2017-01-06T09:39:21.652Z,95
2017-01-06T09:40:21.262Z,100
2017-01-06T09:41:20.874Z,100
2017-01-06T09:42:21.681Z,100
2017-01-06T09:43:21.648Z,95
2017-01-06T09:44:20.570Z,90
2017-01-06T09:45:20.076Z,85
2017-01-06T09:46:20.903Z,90
2017-01-06T09:47:21.785Z,85
2017-01-06T09:48:21.494Z,65
2017-01-06T09:49:20.720Z,65
2017-01-06T09:50:21.360Z,65
2017-01-06T09:51:20.585Z,65
2017-01-06T09:52:21.815Z,65
2017-01-06T09:53:20.975Z,70
2017-01-06T09:54:21.746Z,70
2017-01-06T09:55:21.461Z,70
2017-01-06T09:56:20.633Z,70
2017-01-06T09:57:21.480Z,70
2017-01-06T09:58:20.646Z,70
2017-01-06T09:59:21.497Z,75
2017-01-06T10:00:21.124Z,70
2017-01-06T10:01:21.173Z,70
2017-01-06T10:02:21.133Z,70
2017-01-06T10:03:21.094Z,70
2017-01-06T10:04:21.097Z,65
2017-01-06T10:05:20.769Z,60
2017-01-06T10:06:21.170Z,60
2017-01-06T10:07:20.444Z,60
2017-01-06T10:08:20.693Z,55
2017-01-06T10:09:21.604Z,45
2017-01-06T10:10:21.212Z,45
2017-01-06T10:11:21.821Z,40
2017-01-06T10:12:21.571Z,40
2017-01-06T10:13:22.088Z,45
2017-01-06T10:14:21.550Z,35
2017-01-06T10:15:21.708Z,35
2017-01-06T10:16:21.316Z,40
2017-01-06T10:17:21.673Z,35
2017-01-06T10:18:21.584Z,30
2017-01-06T10:19:21.691Z,30
2017-01-06T10:20:21.311Z,35
2017-01-06T10:21:20.867Z,35
2017-01-06T10:22:21.326Z,35
2017-01-06T10:23:20.942Z,35
2017-01-06T10:24:21.744Z,35
2017-01-06T10:25:21.855Z,40
2017-01-06T10:26:21.018Z,40
2017-01-06T10:27:21.369Z,40
2017-01-06T10:28:20.539Z,40
2017-01-06T10:29:21.396Z,40
2017-01-06T10:30:21.400Z,40
2017-01-06T10:31:21.354Z,40
2017-01-06T10:32:21.810Z,40
2017-01-06T10:33:21.381Z,40
2017-01-06T10:34:22.275Z,40
2017-01-06T10:35:22.186Z,40
2017-01-06T10:36:21.802Z,40
2017-01-06T10:37:21.805Z,40
2017-01-06T10:38:21.821Z,40
2017-01-06T10:39:21.531Z,40
2017-01-06T10:40:20.995Z,40
2017-01-06T10:41:21.845Z,45
2017-01-06T10:42:22.250Z,45
2017-01-06T10:43:21.130Z,45
2017-01-06T10:44:21.485Z,45
2017-01-06T10:45:21.881Z,45
2017-01-06T10:46:21.941Z,45
2017-01-06T10:47:21.505Z,45
2017-01-06T10:48:22.519Z,45
2017-01-06T10:49:21.567Z,45
2017-01-06T10:50:22.379Z,40
2017-01-06T10:51:21.145Z,40
2017-01-06T10:52:22.386Z,40
2017-01-06T10:53:21.605Z,40
2017-01-06T10:54:22.405Z,40
2017-01-06T10:55:21.673Z,35
2017-01-06T10:56:21.579Z,35
2017-01-06T10:57:22.034Z,35
2017-01-06T10:58:22.103Z,35
2017-01-06T10:59:22.398Z,35
2017-01-06T11:00:22.012Z,35
2017-01-06T11:01:21.577Z,35
2017-01-06T11:02:21.688Z,35
2017-01-06T11:03:20.948Z,40
2017-01-06T11:04:21.647Z,40
2017-01-06T11:05:22.065Z,40
2017-01-06T11:06:21.666Z,40
2017-01-06T11:07:21.381Z,40
2017-01-06T11:08:21.236Z,40
2017-01-06T11:09:21.693Z,40
2017-01-06T11:10:21.749Z,40
2017-01-06T11:11:22.120Z,35
2017-01-06T11:12:21.322Z,40
2017-01-06T11:13:22.568Z,40
2017-01-06T11:14:21.388Z,40
2017-01-06T11:15:21.740Z,35
2017-01-06T11:16:21.751Z,35
2017-01-06T11:17:22.207Z,35
2017-01-06T11:18:22.265Z,35
2017-01-06T11:19:22.079Z,35
2017-01-06T11:20:22.579Z,35
2017-01-06T11:21:22.735Z,35
2017-01-06T11:22:21.818Z,35
2017-01-06T11:23:21.814Z,35
2017-01-06T11:24:22.229Z,35
2017-01-06T11:25:21.957Z,35
2017-01-06T11:26:21.393Z,35
2017-01-06T11:27:21.898Z,40
2017-01-06T11:28:22.204Z,40
2017-01-06T11:29:21.914Z,35
2017-01-06T11:30:22.784Z,35
2017-01-06T11:31:21.540Z,35
2017-01-06T11:32:21.548Z,35
2017-01-06T11:33:21.556Z,35
2017-01-06T11:34:21.859Z,40
2017-01-06T11:35:23.120Z,40
2017-01-06T11:36:22.376Z,35
2017-01-06T11:37:22.736Z,35
2017-01-06T11:38:21.998Z,35
2017-01-06T11:39:21.947Z,35
2017-01-06T11:40:21.561Z,40
2017-01-06T11:41:21.574Z,40
2017-01-06T11:42:22.371Z,35
2017-01-06T11:43:21.635Z,35
2017-01-06T11:44:22.389Z,35
2017-01-06T11:45:22.841Z,40
2017-01-06T11:46:21.676Z,40
2017-01-06T11:47:22.095Z,40
2017-01-06T11:48:21.681Z,40
2017-01-06T11:49:22.445Z,40
2017-01-06T11:50:21.350Z,40
2017-01-06T11:51:22.844Z,40
2017-01-06T11:52:22.077Z,40
2017-01-06T11:53:22.128Z,40
2017-01-06T11:54:21.785Z,40
2017-01-06T11:55:21.687Z,40
2017-01-06T11:56:22.492Z,40
2017-01-06T11:57:22.947Z,40
2017-01-06T11:58:22.503Z,40
2017-01-06T11:59:22.566Z,40
2017-01-06T12:00:22.678Z,40
2017-01-06T12:01:22.535Z,40
2017-01-06T12:02:22.540Z,40
2017-01-06T12:03:22.257Z,40
2017-01-06T12:04:22.621Z,40
2017-01-06T12:05:22.169Z,40
2017-01-06T12:06:21.927Z,40
2017-01-06T12:07:21.357Z,40
2017-01-06T12:08:23.391Z,35
2017-01-06T12:09:23.198Z,40
2017-01-06T12:10:22.664Z,40
2017-01-06T12:11:22.916Z,40
2017-01-06T12:12:21.436Z,40
2017-01-06T12:13:22.733Z,40
2017-01-06T12:14:22.656Z,40
2017-01-06T12:15:22.710Z,35
2017-01-06T12:16:22.709Z,35
2017-01-06T12:17:22.268Z,35
2017-01-06T12:18:22.684Z,35
2017-01-06T12:19:22.342Z,35
2017-01-06T12:20:21.950Z,35
2017-01-06T12:21:22.803Z,35
2017-01-06T12:22:22.413Z,35
2017-01-06T12:23:23.170Z,35
2017-01-06T12:24:22.828Z,35
2017-01-06T12:25:22.354Z,35
2017-01-06T12:26:21.959Z,35
2017-01-06T12:27:22.849Z,35
2017-01-06T12:28:22.469Z,35
2017-01-06T12:29:22.422Z,35
2017-01-06T12:30:22.830Z,35
2017-01-06T12:31:22.734Z,35
2017-01-06T12:32:22.553Z,35
2017-01-06T12:33:22.412Z,35
2017-01-06T12:34:22.813Z,35
2017-01-06T12:35:22.086Z,35
2017-01-06T12:36:22.831Z,35
2017-01-06T12:37:22.539Z,35
2017-01-06T12:38:22.910Z,35
2017-01-06T12:39:22.958Z,35
2017-01-06T12:40:23.559Z,35
2017-01-06T12:41:22.922Z,35
2017-01-06T12:42:22.482Z,35
2017-01-06T12:43:22.590Z,35
2017-01-06T12:44:22.647Z,35
2017-01-06T12:45:23.400Z,35
2017-01-06T12:46:22.469Z,35
2017-01-06T12:47:22.921Z,35
2017-01-06T12:48:22.979Z,35
2017-01-06T12:49:22.897Z,35
2017-01-06T12:50:23.003Z,35
2017-01-06T12:51:22.959Z,35
2017-01-06T12:52:22.226Z,35
2017-01-06T12:53:22.237Z,35
2017-01-06T12:54:22.739Z,35
2017-01-06T12:55:22.251Z,35
2017-01-06T12:56:22.604Z,35
2017-01-06T12:57:23.008Z,35
2017-01-06T12:58:22.698Z,35
2017-01-06T12:59:23.379Z,30
2017-01-06T13:00:22.686Z,30
2017-01-06T13:01:23.094Z,30
2017-01-06T13:02:23.049Z,30
2017-01-06T13:03:23.067Z,30
2017-01-06T13:04:22.329Z,30
2017-01-06T13:05:22.786Z,30
2017-01-06T13:06:23.189Z,30
2017-01-06T13:07:22.697Z,30
2017-01-06T13:08:22.707Z,30
2017-01-06T13:09:22.372Z,30
2017-01-06T13:10:23.124Z,30
2017-01-06T13:11:22.834Z,30
2017-01-06T13:12:23.633Z,30
2017-01-06T13:13:22.057Z,30
2017-01-06T13:14:22.415Z,30
2017-01-06T13:15:22.719Z,35
2017-01-06T13:16:22.883Z,35
2017-01-06T13:17:22.440Z,35
2017-01-06T13:18:22.067Z,35
2017-01-06T13:19:22.457Z,35
2017-01-06T13:20:22.414Z,35
2017-01-06T13:21:22.479Z,35
2017-01-06T13:22:22.139Z,35
2017-01-06T13:23:23.233Z,35
2017-01-06T13:24:23.237Z,30
2017-01-06T13:25:22.852Z,30
2017-01-06T13:26:23.255Z,25
2017-01-06T13:27:22.975Z,25
2017-01-06T13:28:24.930Z,25
2017-01-06T13:29:22.943Z,25
2017-01-06T13:30:22.945Z,25
2017-01-06T13:31:22.955Z,25
2017-01-06T13:32:22.516Z,25
2017-01-06T13:33:23.314Z,20
2017-01-06T13:34:22.999Z,20
2017-01-06T13:35:23.503Z,20
2017-01-06T13:36:22.888Z,20
2017-01-06T13:37:23.005Z,20
2017-01-06T13:38:23.754Z,20
2017-01-06T13:39:22.670Z,20
2017-01-06T13:40:23.429Z,20
2017-01-06T13:41:23.406Z,20
2017-01-06T13:42:23.392Z,20
2017-01-06T13:43:22.554Z,20
2017-01-06T13:44:23.456Z,20
2017-01-06T13:45:23.907Z,20
2017-01-06T13:46:23.420Z,25
2017-01-06T13:47:23.083Z,25
2017-01-06T13:48:23.787Z,20
2017-01-06T13:49:23.309Z,20
2017-01-06T13:50:23.609Z,20
2017-01-06T13:51:23.568Z,20
2017-01-06T13:52:23.527Z,20
2017-01-06T13:53:22.688Z,20
2017-01-06T13:54:22.356Z,20
2017-01-06T13:55:22.320Z,20
2017-01-06T13:56:23.106Z,20
2017-01-06T13:57:23.962Z,20
2017-01-06T13:58:37.667Z,20
2017-01-06T13:59:23.187Z,20
2017-01-06T14:00:23.102Z,20
2017-01-06T14:01:22.807Z,20
2017-01-06T14:02:23.105Z,20
2017-01-06T14:03:24.008Z,20
2017-01-06T14:04:24.226Z,20
2017-01-06T14:05:23.186Z,25
2017-01-06T14:06:23.643Z,25
2017-01-06T14:07:23.602Z,25
2017-01-06T14:08:23.910Z,25
2017-01-06T14:09:23.216Z,25
2017-01-06T14:10:22.933Z,20
2017-01-06T14:11:22.840Z,20
2017-01-06T14:12:23.246Z,20
2017-01-06T14:13:23.302Z,20
2017-01-06T14:14:23.705Z,20
2017-01-06T14:15:22.597Z,20
2017-01-06T14:16:23.671Z,20
2017-01-06T14:17:22.935Z,20
2017-01-06T14:18:23.000Z,20
2017-01-06T14:19:23.306Z,20
2017-01-06T14:20:22.914Z,20
2017-01-06T14:21:22.678Z,20
2017-01-06T14:22:23.429Z,20
2017-01-06T14:23:23.732Z,20
2017-01-06T14:24:24.236Z,20
2017-01-06T14:25:23.749Z,20
2017-01-06T14:26:22.567Z,20
2017-01-06T14:27:23.770Z,20
2017-01-06T14:28:22.585Z,20
2017-01-06T14:29:23.833Z,20
2017-01-06T14:30:23.888Z,15
2017-01-06T14:31:23.852Z,15
2017-01-06T14:32:24.251Z,15
2017-01-06T14:33:23.869Z,15